SCC: Mid-Ohio: GS final practice times

Pos Num Class Team Time Gap To 1st Speed --- --- ----- ------------------------------ ---------- ------- ------- ------- 1. 41 GS TRG 1:33.052 87.358 2. 97...

Pos Num Class Team                                 Time     Gap  To 1st   Speed
--- --- ----- ------------------------------ ---------- ------- ------- -------
 1.  41 GS    TRG                              1:33.052                  87.358
 2.  97 GS    Turner Motorsport                1:33.365   0.313   0.313  87.065
 3.  25 GS    Fiorano/C-MAX Racing             1:33.388   0.023   0.336  87.043
 4.  55 GS    Hyper Sport                      1:33.499   0.111   0.447  86.940
 5.  52 GS    Rehagen Racing                   1:33.679   0.180   0.627  86.773
 6.  40 GS    TRG                              1:33.718   0.039   0.666  86.737
 7.  80 GS    Kinetic Motorsports              1:33.736   0.018   0.684  86.720
 8.  79 GS    Kinetic Motorsports              1:33.919   0.183   0.867  86.551
 9.  90 GS    Automatic Racing                 1:33.964   0.045   0.912  86.510
10. 137 GS    JBS Motorsports                  1:34.014   0.050   0.962  86.464
11.  59 GS    Rehagen Racing                   1:34.018   0.004   0.966  86.460
12.  78 GS    Kinetic Motorsports              1:34.060   0.042   1.008  86.421
13.  99 GS    Automatic Racing                 1:34.067   0.007   1.015  86.415
14.  33 GS    Playboy Racing                   1:34.110   0.043   1.058  86.376
15.  16 GS    Champion Motorsports             1:34.164   0.054   1.112  86.326
16.  49 GS    Marcus Motorsports               1:34.252   0.088   1.200  86.245
17.  37 GS    JBS Racing                       1:34.280   0.028   1.228  86.220
18.  39 GS    TRG                              1:34.307   0.027   1.255  86.195
19.  38 GS    BGB Motorsports                  1:34.315   0.008   1.263  86.188
20.  09 GS    Automatic Racing                 1:34.327   0.012   1.275  86.177
21.  88 GS    Ranger Sports Racing             1:34.388   0.061   1.336  86.121
22.   4 GS    Blackforest Motorsports          1:34.551   0.163   1.499  85.973
23.  43 GS    ASC Motorsports                  1:34.630   0.079   1.578  85.901
24.  28 GS    Fall-Line Motorsports            1:34.783   0.153   1.731  85.762
25. 154 GS    Rehagen Racing                   1:34.788   0.005   1.736  85.758
26.  91 GS    Automatic Racing                 1:34.859   0.071   1.807  85.694
27.  46 GS    Fall-Line Motorsports            1:34.874   0.015   1.822  85.680
28.  17 GS    Team Centurion                   1:34.997   0.123   1.945  85.569
29.  83 GS    BGB Motorsports                  1:35.072   0.075   2.020  85.502
30.  05 GS    Team Sahlen                      1:35.260   0.188   2.208  85.333
31.  54 GS    Hyper Sport                      1:35.596   0.336   2.544  85.033
32.  04 GS    Team Sahlen                      1:35.643   0.047   2.591  84.991
33.  26 GS    Fiorano/C-MAX Racing             1:35.671   0.028   2.619  84.966
34.  07 GS    Cardiosport Racing               1:35.752   0.081   2.700  84.894
35.  89 GS    Ranger Sports Racing             1:35.761   0.009   2.709  84.886
36.  42 GS    TRG                              1:36.522   0.761   3.470  84.217
37.  96 GS    Turner Motorsport                1:36.830   0.308   3.778  83.949
38.  87 GS    Ranger Sports Racing             1:37.542   0.712   4.490  83.336
39.   5 GS    Blackforest Motorsports           No Time
40.  20 GS    Horsepower Ranch                  No Time

Be part of something big

Write a comment
Show comments
About this article
Series Grand-Am
Teams Kinetic Motorsports , Rehagen Racing , Turner Motorsport , Team Sahlen , Automatic Racing , Fall-Line Motorsports